Aérodrome :
LOGIN :

S'inscrire | Disclaimer

   EN    FR    IT 

 










Légende :    VFR   VFR Marginal   IFR   IFR Intensif   IFR Très Intensif
Visi : 
Plafond : 
>= 8 km
>= 3000ft
5 à 8 km
1000 à 3000 ft
1500m à 5 km
500 à 1000 ft
800 à 1500m
200 à 500 ft
< 800m
< 200 ft
Symboles :   Orages  Brouillard  Fortes neiges  Fortes précipitations  Vent > 20 kt
SIGMETs :   Divers  Orages  Givrage  Turbulence  Onde Orograph.  Cendres Volcan.






- Altitude de l'aérodrome : 286 ft
- Code IATA : FFD


EGVA - RAF Fairford

DERNIER METAR :
  • 050656Z AUTO 17010KT 9999 FEW014 BKN150 16/15 A2971 RMK AO2 SLP062 T01570147 $

METARs EXPIRÉS :
  • 050556Z AUTO 17007KT 9999 FEW010 BKN150 14/14 A2973 RMK AO2 SLP069 T01410139 10141 20118 57015 $
  • 050456Z AUTO 17005KT 9999 FEW170 12/12 A2975 RMK AO2 SLP076 T01190117 $

TAF AMD TAF EGVA
Valide du 05 à 04h jusqu'au 06 à 10h UTC


050505Z 0504/0610 18009KT 9999 SCT025 BKN100 QNH2973INS
BECMG 0507/0508 18012G18KT 9999 BKN020 OVC050 QNH2966INS
BECMG 0511/0512 18015G25KT 6000 -SHRA BKN015 OVC030 QNH2945INS
BECMG 0518/0519 20012G20KT 8000 -SHRA OVC010 QNH2938INS TX19/0514Z TN12/0603Z LAST NO AMDS AFT 0505 NEXT 0511



MET'MAP, la Météo Aéronautique d'un coup d'oeil ! - Copyright ORBIFLY Décembre 2007 - Disclaimer

ORBIFLY MET'MAP TEAM :

Programmation & Développement : Alexandra Zaïnal
Sur une idée originale de : Baudouin d'Aumeries
Assistance à la programmation : Marc-Olivier Méhu
Soutien technique & logistique : Manuel Goepfert

Contact : metmap@orbifly.com




SOURCES & CREDITS :

   NOAA